Weather at Charlottetown Airport

Public forecast

Using degrees Celsius for public forecast. Weather courtesy of forecast.io.

Current aviation weather report (METAR) for Charlottetown Airport

2024/07/20 06:00 (retrieved 11 minutes ago)

CYYG 200600Z 24008KT 15SM SKC 18/15 A2999 RMK SLP156 DENSITY ALT 500FT

Aviation forecast (TAF) for Charlottetown Airport

2024/07/20 06:42 (retrieved 0 seconds ago)

TAF CYYG 200540Z 2006/2018 24008KT P6SM SKC BECMG 2012/2014 22012KT RMK NXT FCST BY 201200Z